Time;durP1;ratioP1;P1;durP2;ratioP2;P2;SDS_P1;SDS_P2;PMS_P1;PMS_P2;Temp;Humidity;BMP_temperature;BMP_pressure;BME280_temperature;BME280_humidity;BME280_pressure;Samples;Min_cycle;Max_cycle;Signal;HPM_P1;HPM_P2
2021/03/13 00:00:08;;;;;;;25.48;8.00;;;;;;;3.98;65.07;99354.06;1787553;80;22062;-71
2021/03/13 00:02:36;;;;;;;23.35;8.55;;;;;;;3.99;65.08;99354.41;1787544;80;21164;-71
2021/03/13 00:05:04;;;;;;;19.52;7.28;;;;;;;3.96;65.07;99350.77;1787513;80;21584;-71
2021/03/13 00:07:30;;;;;;;21.73;8.20;;;;;;;3.97;65.08;99349.79;1787300;80;21128;-71
2021/03/13 00:09:56;;;;;;;30.02;14.53;;;;;;;4.01;65.07;99345.87;1787517;80;21101;-71
2021/03/13 00:12:23;;;;;;;29.67;11.63;;;;;;;4.03;65.08;99341.25;1787619;80;22083;-71
2021/03/13 00:14:49;;;;;;;23.57;8.73;;;;;;;4.06;65.08;99342.75;1787469;79;21151;-71
2021/03/13 00:17:15;;;;;;;15.75;5.97;;;;;;;4.08;65.09;99335.03;1787718;80;21148;-71
2021/03/13 00:19:42;;;;;;;16.25;6.70;;;;;;;4.11;65.07;99329.45;1787334;80;21131;-71
2021/03/13 00:22:08;;;;;;;12.58;4.95;;;;;;;4.15;65.06;99322.84;1791152;80;21211;-71
2021/03/13 00:24:35;;;;;;;13.90;4.85;;;;;;;4.17;65.08;99311.67;1791437;80;21553;-71
2021/03/13 00:27:01;;;;;;;13.55;5.70;;;;;;;4.21;65.06;99309.55;1791510;80;21592;-71
2021/03/13 00:29:29;;;;;;;18.40;5.75;;;;;;;4.22;65.06;99305.94;1791409;80;21576;-71
2021/03/13 00:31:55;;;;;;;15.13;4.65;;;;;;;4.24;65.05;99307.42;1791462;80;21155;-71
2021/03/13 00:34:21;;;;;;;11.85;4.20;;;;;;;4.27;65.03;99307.10;1791669;80;21553;-71
2021/03/13 00:36:48;;;;;;;16.27;5.25;;;;;;;4.32;65.01;99305.33;1791359;80;22090;-71
2021/03/13 00:39:16;;;;;;;16.35;5.87;;;;;;;4.36;64.98;99302.19;1791480;80;21190;-71
2021/03/13 00:41:42;;;;;;;12.53;4.47;;;;;;;4.39;64.95;99304.55;1791484;80;21549;-71
2021/03/13 00:44:08;;;;;;;19.70;4.30;;;;;;;4.45;64.94;99288.06;1791307;80;21830;-71
2021/03/13 00:46:36;;;;;;;9.98;4.15;;;;;;;4.52;64.88;99298.33;1791527;80;21116;-71
2021/03/13 00:49:04;;;;;;;17.10;5.08;;;;;;;4.53;64.85;99290.75;1791359;80;21198;-71
2021/03/13 00:51:30;;;;;;;9.70;3.42;;;;;;;4.57;64.80;99289.94;1790786;80;21616;-71
2021/03/13 00:53:56;;;;;;;14.13;4.62;;;;;;;4.58;64.80;99284.97;1791572;80;21112;-71
2021/03/13 00:56:23;;;;;;;20.27;8.45;;;;;;;4.59;64.77;99283.16;1791531;80;21135;-71
2021/03/13 00:58:49;;;;;;;9.78;3.65;;;;;;;4.60;64.75;99279.55;1791454;80;21140;-71
2021/03/13 01:01:15;;;;;;;11.03;3.72;;;;;;;4.59;64.73;99276.56;1791548;80;21476;-71
2021/03/13 01:03:41;;;;;;;12.63;3.92;;;;;;;4.58;64.72;99269.63;1791562;80;21609;-71
2021/03/13 01:06:08;;;;;;;9.40;3.67;;;;;;;4.62;64.70;99264.36;1791688;80;21154;-71
2021/03/13 01:08:34;;;;;;;11.05;3.87;;;;;;;4.63;64.68;99269.98;1791685;80;21170;-71
2021/03/13 01:11:00;;;;;;;14.38;4.15;;;;;;;4.66;64.63;99274.45;1791531;80;21155;-71
2021/03/13 01:13:27;;;;;;;10.75;4.40;;;;;;;4.66;64.60;99282.38;1791773;80;21310;-71
2021/03/13 01:15:53;;;;;;;14.25;3.95;;;;;;;4.67;64.58;99279.24;1791289;80;21116;-72
2021/03/13 01:18:19;;;;;;;14.75;3.30;;;;;;;4.72;64.57;99296.25;1791279;80;21176;-71
2021/03/13 01:20:50;;;;;;;13.28;3.37;;;;;;;4.77;64.53;99288.69;1790555;80;21147;-71
2021/03/13 01:23:16;;;;;;;13.55;3.42;;;;;;;4.87;64.49;99283.26;1787794;79;21131;-71
2021/03/13 01:25:42;;;;;;;28.23;11.30;;;;;;;4.97;64.42;99286.58;1787662;80;21136;-71
2021/03/13 01:28:09;;;;;;;10.70;3.27;;;;;;;5.09;64.37;99273.41;1787469;80;21155;-71
2021/03/13 01:30:36;;;;;;;9.05;2.27;;;;;;;5.18;64.33;99284.31;1787827;80;21113;-71
2021/03/13 01:33:02;;;;;;;12.50;3.58;;;;;;;5.19;64.35;99278.05;1787714;80;21128;-72
2021/03/13 01:35:29;;;;;;;10.13;2.20;;;;;;;5.17;64.34;99272.11;1787784;80;21183;-72
2021/03/13 01:37:55;;;;;;;7.45;2.72;;;;;;;5.15;64.36;99260.03;1787579;80;22073;-72
2021/03/13 01:40:22;;;;;;;8.70;3.33;;;;;;;5.17;64.38;99262.86;1787762;80;21140;-72
2021/03/13 01:42:50;;;;;;;9.35;3.40;;;;;;;5.19;64.35;99261.36;1787720;80;21180;-72
2021/03/13 01:45:21;;;;;;;6.12;2.20;;;;;;;5.17;64.36;99264.19;1787553;80;21198;-72
2021/03/13 01:47:47;;;;;;;10.45;3.62;;;;;;;5.15;64.37;99258.22;1788089;80;21168;-72
2021/03/13 01:50:14;;;;;;;9.38;3.50;;;;;;;5.16;64.36;99263.84;1787335;80;21521;-72
2021/03/13 01:52:40;;;;;;;12.60;3.80;;;;;;;5.13;64.38;99265.50;1787753;80;21179;-72
2021/03/13 01:55:09;;;;;;;9.45;3.22;;;;;;;5.14;64.39;99261.84;1787680;80;21576;-72
2021/03/13 01:57:36;;;;;;;7.45;2.25;;;;;;;5.17;64.37;99264.67;1787541;80;21224;-72
2021/03/13 02:00:11;;;;;;;9.10;2.58;;;;;;;5.19;64.37;99270.13;1787553;79;21118;-71
2021/03/13 02:02:37;;;;;;;6.62;2.62;;;;;;;5.26;64.32;99260.55;1786616;80;21204;-71
2021/03/13 02:05:23;;;;;;;6.55;1.98;;;;;;;5.34;64.28;99249.99;1787783;80;21144;-72
2021/03/13 02:07:57;;;;;;;6.05;2.35;;;;;;;5.38;64.26;99256.58;1787644;79;21147;-71
2021/03/13 02:10:41;;;;;;;6.83;2.08;;;;;;;5.43;64.25;99258.23;1787692;79;21124;-71
2021/03/13 02:13:33;;;;;;;4.00;1.90;;;;;;;5.46;64.23;99257.91;1786162;80;21191;-71
2021/03/13 02:16:38;;;;;;;5.70;1.70;;;;;;;5.49;64.22;99256.25;1787682;80;22256;-72
2021/03/13 02:20:01;;;;;;;6.15;1.92;;;;;;;5.48;64.20;99257.27;1787672;80;21163;-72
2021/03/13 02:22:28;;;;;;;5.78;1.82;;;;;;;5.52;64.21;99247.98;1790994;79;21247;-72
2021/03/13 02:25:26;;;;;;;7.55;2.45;;;;;;;5.57;64.21;99242.70;1791575;80;21596;-72
2021/03/13 02:28:06;;;;;;;6.65;2.20;;;;;;;5.56;64.20;99248.48;1790670;80;21144;-72
2021/03/13 02:30:33;;;;;;;7.90;2.33;;;;;;;5.53;64.22;99236.42;1791506;80;22108;-72
2021/03/13 02:33:19;;;;;;;7.33;2.55;;;;;;;5.51;64.25;99242.88;1791641;80;21171;-72
2021/03/13 02:35:54;;;;;;;5.67;1.85;;;;;;;5.50;64.27;99235.44;1791525;80;21112;-71
2021/03/13 02:38:45;;;;;;;8.33;2.02;;;;;;;5.54;64.25;99238.08;1791502;80;21162;-72
2021/03/13 02:41:15;;;;;;;3.45;1.40;;;;;;;5.58;64.26;99243.03;1791626;80;21178;-72
2021/03/13 02:43:43;;;;;;;;;;;;;;;5.60;64.26;99245.00;1794162;80;21269;-72
2021/03/13 02:46:10;;;;;;;7.17;2.25;;;;;;;5.60;64.30;99247.64;1791220;80;20269;-72
2021/03/13 02:48:36;;;;;;;4.15;1.45;;;;;;;5.58;64.32;99243.03;1791678;80;21155;-71
2021/03/13 02:51:03;;;;;;;7.92;1.60;;;;;;;5.56;64.34;99243.19;1791345;80;21120;-71
2021/03/13 02:53:29;;;;;;;6.47;1.65;;;;;;;5.52;64.39;99244.53;1791661;80;21187;-71
2021/03/13 02:55:55;;;;;;;5.60;1.50;;;;;;;5.49;64.42;99247.00;1791569;80;21251;-71
2021/03/13 02:58:22;;;;;;;2.25;0.90;;;;;;;5.47;64.48;99250.31;1791292;80;21148;-71
2021/03/13 03:00:49;;;;;;;6.55;1.57;;;;;;;5.43;64.60;99240.23;1791702;80;21159;-71
2021/03/13 03:03:15;;;;;;;5.92;1.30;;;;;;;5.40;64.66;99238.75;1791532;80;21123;-71
2021/03/13 03:05:41;;;;;;;5.78;1.67;;;;;;;5.33;64.77;99233.79;1791727;80;21159;-71
2021/03/13 03:08:08;;;;;;;4.78;1.42;;;;;;;5.31;64.89;99233.11;1791269;80;21193;-72
2021/03/13 03:10:40;;;;;;;3.80;1.30;;;;;;;5.27;64.97;99235.78;1791403;80;21187;-72
2021/03/13 03:13:07;;;;;;;4.78;1.87;;;;;;;5.23;65.10;99246.34;1760595;80;21135;-72
2021/03/13 03:15:33;;;;;;;7.50;1.55;;;;;;;5.17;65.24;99243.53;1791618;80;21160;-72
2021/03/13 03:18:04;;;;;;;4.70;1.25;;;;;;;5.12;65.41;99248.47;1791503;80;21163;-72
2021/03/13 03:20:31;;;;;;;4.00;0.85;;;;;;;5.05;65.51;99241.70;1791406;80;22040;-71
2021/03/13 03:22:57;;;;;;;3.35;0.88;;;;;;;4.98;65.70;99235.41;1798795;79;21188;-72
2021/03/13 03:25:23;;;;;;;4.87;1.12;;;;;;;4.92;65.90;99234.75;1768350;79;21671;-71
2021/03/13 03:27:50;;;;;;;2.05;1.05;;;;;;;4.86;66.09;99226.95;1799666;79;21159;-71
2021/03/13 03:30:31;;;;;;;8.83;2.20;;;;;;;4.79;66.26;99236.52;1799667;79;21104;-71
2021/03/13 03:32:57;;;;;;;5.20;1.98;;;;;;;4.70;66.43;99230.06;1799618;79;21320;-71
2021/03/13 03:35:24;;;;;;;1.72;1.00;;;;;;;4.63;66.64;99246.22;1799720;79;21648;-72
2021/03/13 03:37:52;;;;;;;3.80;1.15;;;;;;;4.54;66.79;99250.14;1799468;79;21147;-71
2021/03/13 03:40:18;;;;;;;3.67;1.17;;;;;;;4.50;67.03;99258.05;1799649;79;21172;-71
2021/03/13 03:42:49;;;;;;;4.87;1.57;;;;;;;4.45;67.25;99266.12;1799478;79;21596;-71
2021/03/13 03:45:18;;;;;;;3.02;1.30;;;;;;;4.41;67.43;99266.92;1799029;79;21204;-72
2021/03/13 03:47:45;;;;;;;3.73;1.23;;;;;;;4.37;67.64;99271.35;1799923;79;21179;-71
2021/03/13 03:50:12;;;;;;;1.92;1.07;;;;;;;4.35;67.85;99272.84;1799517;79;21135;-71
2021/03/13 03:52:38;;;;;;;2.22;1.27;;;;;;;4.32;68.00;99275.80;1768732;79;21787;-71
2021/03/13 03:55:06;;;;;;;2.33;0.88;;;;;;;4.33;68.14;99274.80;1799671;79;21548;-72
2021/03/13 03:57:32;;;;;;;2.42;0.88;;;;;;;4.31;68.32;99273.31;1799748;79;22099;-71
2021/03/13 03:59:58;;;;;;;1.15;0.60;;;;;;;4.28;68.46;99274.46;1799455;79;21147;-71
2021/03/13 04:02:25;;;;;;;2.22;0.82;;;;;;;4.22;68.58;99276.39;1799725;79;21196;-71
2021/03/13 04:04:51;;;;;;;3.87;1.07;;;;;;;4.19;68.76;99271.92;1799641;79;21139;-71
2021/03/13 04:07:18;;;;;;;5.17;1.00;;;;;;;4.19;68.93;99278.52;1799495;79;21182;-71
2021/03/13 04:09:44;;;;;;;1.92;1.22;;;;;;;4.18;69.09;99281.67;1799694;79;21588;-71
2021/03/13 04:12:11;;;;;;;1.92;0.90;;;;;;;4.18;69.25;99280.35;1799562;79;21167;-71
2021/03/13 04:14:37;;;;;;;2.58;1.10;;;;;;;4.17;69.37;99277.37;1799801;79;21168;-71
2021/03/13 04:17:03;;;;;;;3.92;1.22;;;;;;;4.20;69.52;99267.81;1799505;79;21124;-71
2021/03/13 04:19:29;;;;;;;4.35;2.08;;;;;;;4.22;69.67;99276.39;1799597;79;21187;-71
2021/03/13 04:21:56;;;;;;;5.25;2.10;;;;;;;4.22;69.85;99273.75;1796610;79;22135;-71
2021/03/13 04:24:22;;;;;;;3.45;1.25;;;;;;;4.21;69.96;99276.08;1791263;80;22611;-71
2021/03/13 04:26:48;;;;;;;5.75;1.40;;;;;;;4.17;70.10;99281.33;1760560;80;21130;-71
2021/03/13 04:29:14;;;;;;;5.25;1.70;;;;;;;4.11;70.23;99281.96;1791643;80;21131;-71
2021/03/13 04:31:40;;;;;;;1.77;1.22;;;;;;;4.13;70.33;99285.74;1791553;80;21163;-71
2021/03/13 04:34:07;;;;;;;3.95;1.00;;;;;;;4.12;70.45;99287.55;1791642;80;21248;-71
2021/03/13 04:36:33;;;;;;;4.20;0.80;;;;;;;4.13;70.57;99286.58;1791654;80;21117;-71
2021/03/13 04:39:03;;;;;;;2.17;1.10;;;;;;;4.16;70.69;99290.70;1791516;80;21169;-71
2021/03/13 04:41:29;;;;;;;2.92;1.92;;;;;;;4.19;70.81;99285.94;1791699;80;21207;-71
2021/03/13 04:43:55;;;;;;;2.65;1.27;;;;;;;4.19;70.94;99291.70;1735698;80;21131;-71
2021/03/13 04:46:21;;;;;;;4.42;1.42;;;;;;;4.19;71.03;99292.53;1791649;80;21198;-71
2021/03/13 04:48:48;;;;;;;2.47;1.52;;;;;;;4.16;71.13;99293.34;1791748;80;21148;-71
2021/03/13 04:51:17;;;;;;;2.65;1.00;;;;;;;4.13;71.24;99303.72;1791698;80;21140;-71
2021/03/13 04:53:44;;;;;;;4.70;1.30;;;;;;;4.10;71.34;99309.31;1791783;80;21104;-71
2021/03/13 04:56:11;;;;;;;2.37;0.98;;;;;;;4.04;71.45;99309.95;1791452;80;21120;-71
2021/03/13 04:58:37;;;;;;;3.37;1.12;;;;;;;3.99;71.53;99313.52;1791589;80;22134;-71
2021/03/13 05:01:04;;;;;;;2.52;1.20;;;;;;;3.95;71.60;99310.86;1791596;80;21167;-71
2021/03/13 05:03:30;;;;;;;4.30;1.40;;;;;;;3.91;71.72;99310.83;1791800;80;21128;-71
2021/03/13 05:05:56;;;;;;;1.82;1.20;;;;;;;3.86;71.86;99309.98;1791691;80;21600;-71
2021/03/13 05:08:22;;;;;;;3.77;2.10;;;;;;;3.83;71.98;99308.16;1791546;80;21581;-71
2021/03/13 05:10:48;;;;;;;4.78;1.20;;;;;;;3.81;72.09;99306.14;1791777;80;22191;-71
2021/03/13 05:13:15;;;;;;;5.58;1.35;;;;;;;3.76;72.18;99301.83;1791590;80;21128;-71
2021/03/13 05:15:41;;;;;;;4.17;1.32;;;;;;;3.69;72.28;99312.17;1791498;80;21187;-71
2021/03/13 05:18:07;;;;;;;3.80;1.50;;;;;;;3.67;72.39;99306.69;1791499;80;21147;-71
2021/03/13 05:20:33;;;;;;;3.20;1.52;;;;;;;3.65;72.47;99309.98;1791669;80;21131;-71
2021/03/13 05:23:00;;;;;;;1.50;1.10;;;;;;;3.61;72.56;99306.83;1788853;80;21188;-71
2021/03/13 05:25:26;;;;;;;3.27;1.32;;;;;;;3.62;72.67;99307.66;1787636;80;21561;-71
2021/03/13 05:27:52;;;;;;;3.27;0.95;;;;;;;3.62;72.75;99318.20;1787814;80;21178;-71
2021/03/13 05:30:20;;;;;;;2.58;1.10;;;;;;;3.61;72.84;99305.50;1787722;80;21163;-71
2021/03/13 05:32:46;;;;;;;3.05;1.20;;;;;;;3.63;72.94;99301.38;1787884;80;21136;-71
2021/03/13 05:35:13;;;;;;;2.85;1.10;;;;;;;3.62;73.04;99302.38;1787719;80;21876;-71
2021/03/13 05:37:39;;;;;;;3.90;1.40;;;;;;;3.60;73.13;99314.87;1787702;80;21704;-71
2021/03/13 05:40:07;;;;;;;3.60;1.47;;;;;;;3.59;73.19;99310.08;1787627;80;21104;-71
2021/03/13 05:42:35;;;;;;;3.55;1.52;;;;;;;3.61;73.24;99309.95;1752966;80;21120;-71
2021/03/13 05:45:03;;;;;;;2.90;1.20;;;;;;;3.66;73.29;99305.05;1787763;80;21529;-71
2021/03/13 05:47:30;;;;;;;2.52;1.15;;;;;;;3.67;73.39;99300.09;1787317;80;21262;-71
2021/03/13 05:50:04;;;;;;;3.33;1.10;;;;;;;3.73;73.43;99300.83;1775720;80;21159;-71
2021/03/13 05:52:32;;;;;;;7.17;3.05;;;;;;;3.80;73.47;99300.55;1755749;79;21139;-72
2021/03/13 05:55:00;;;;;;;2.60;1.30;;;;;;;3.87;73.49;99304.23;1756461;80;21198;-71
2021/03/13 05:57:26;;;;;;;5.30;1.52;;;;;;;3.92;73.57;99296.66;1756575;80;21127;-71
2021/03/13 05:59:52;;;;;;;2.87;1.37;;;;;;;4.00;73.62;99304.64;1735404;80;21195;-71
2021/03/13 06:02:20;;;;;;;3.55;1.87;;;;;;;4.10;73.69;99301.41;1756523;81;21207;-72
2021/03/13 06:04:49;;;;;;;6.05;3.08;;;;;;;4.57;73.78;99297.86;1756174;81;21179;-71
2021/03/13 06:07:20;;;;;;;11.78;4.67;;;;;;;4.91;73.54;99291.20;1756565;80;21530;-71
2021/03/13 06:09:56;;;;;;;7.67;3.45;;;;;;;4.79;73.27;99299.07;1756163;80;21505;-71
2021/03/13 06:12:24;;;;;;;8.40;4.62;;;;;;;4.74;73.15;99301.38;1756421;81;21206;-71
2021/03/13 06:14:54;;;;;;;5.40;2.98;;;;;;;4.69;73.21;99299.70;1756444;81;21583;-71
2021/03/13 06:20:01;;;;;;;4.60;1.72;;;;;;;5.05;73.21;99290.58;1799049;78;22039;-72
2021/03/13 06:22:36;;;;;;;3.83;1.55;;;;;;;5.17;73.20;99296.39;1774570;79;21191;-72
2021/03/13 06:25:17;;;;;;;5.03;2.20;;;;;;;5.31;73.19;99298.39;1790171;78;21171;-72
2021/03/13 06:27:46;;;;;;;8.00;2.15;;;;;;;5.43;73.15;99300.54;1744191;79;21676;-72
2021/03/13 06:30:14;;;;;;;9.13;3.52;;;;;;;5.61;73.09;99294.27;1777913;79;21576;-72
2021/03/13 06:32:41;;;;;;;3.50;1.62;;;;;;;5.73;72.99;99299.56;1755928;79;21600;-72
2021/03/13 06:35:30;;;;;;;8.63;3.72;;;;;;;5.83;72.86;99302.86;1751955;79;21188;-72
2021/03/13 06:37:57;;;;;;;16.65;6.80;;;;;;;5.95;72.74;99302.86;1779640;80;21187;-72
2021/03/13 06:40:33;;;;;;;10.48;5.90;;;;;;;6.07;72.58;99298.89;1775532;80;21119;-72
2021/03/13 06:43:01;;;;;;;5.62;2.92;;;;;;;6.17;72.42;99300.85;1783895;80;21199;-72
2021/03/13 06:45:28;;;;;;;8.10;1.92;;;;;;;6.30;72.28;99306.44;1739692;82;21170;-72
2021/03/13 06:47:55;;;;;;;2.62;1.40;;;;;;;6.47;72.18;99304.59;1742791;81;21129;-72
2021/03/13 06:50:26;;;;;;;6.05;1.72;;;;;;;6.59;71.95;99300.56;1762545;80;21585;-72
2021/03/13 06:53:09;;;;;;;2.15;0.90;;;;;;;6.70;71.79;99302.02;1761198;80;21184;-73
2021/03/13 06:55:36;;;;;;;5.33;1.90;;;;;;;6.74;71.61;99293.55;1760047;80;21107;-72
2021/03/13 06:58:08;;;;;;;9.80;1.87;;;;;;;6.82;71.36;99295.34;1779964;80;21206;-73
2021/03/13 07:00:36;;;;;;;2.42;1.30;;;;;;;6.89;71.12;99291.00;1781894;80;21592;-73
2021/03/13 07:03:12;;;;;;;3.87;1.45;;;;;;;6.89;70.77;99291.84;1765856;80;21433;-72
2021/03/13 07:05:40;;;;;;;2.85;1.22;;;;;;;6.91;70.52;99292.48;1761714;80;21206;-73
2021/03/13 07:08:26;;;;;;;3.98;1.00;;;;;;;7.00;70.31;99290.63;1771036;80;21751;-73
2021/03/13 07:11:04;;;;;;;3.02;1.20;;;;;;;7.15;70.08;99286.20;1766982;80;21640;-73
2021/03/13 07:13:38;;;;;;;3.70;1.62;;;;;;;7.26;69.76;99295.08;1748948;81;21147;-73
2021/03/13 07:16:36;;;;;;;7.33;2.87;;;;;;;7.24;69.41;99283.84;1736275;81;21191;-73
2021/03/13 07:19:12;;;;;;;4.53;2.02;;;;;;;7.31;69.17;99292.74;1743701;81;21190;-73
2021/03/13 07:21:41;;;;;;;3.27;1.32;;;;;;;7.40;68.79;99295.65;1732807;81;21605;-72
2021/03/13 07:24:14;;;;;;;3.72;1.57;;;;;;;7.52;68.48;99298.23;1745662;80;21178;-73
2021/03/13 07:26:42;;;;;;;2.92;1.22;;;;;;;7.61;68.25;99299.47;1744712;80;21131;-73
2021/03/13 07:29:11;;;;;;;4.58;2.00;;;;;;;7.62;67.98;99305.94;1744381;80;21195;-73
2021/03/13 07:31:40;;;;;;;3.10;1.00;;;;;;;7.64;67.82;99301.77;1748668;80;21175;-72
2021/03/13 07:34:15;;;;;;;2.22;1.00;;;;;;;7.71;67.56;99291.59;1746962;80;21911;-73
2021/03/13 07:36:42;;;;;;;2.35;1.00;;;;;;;7.80;67.36;99283.90;1747114;80;21258;-72
2021/03/13 07:39:15;;;;;;;4.00;1.35;;;;;;;7.90;67.24;99277.83;1750817;80;21130;-72
2021/03/13 07:41:58;;;;;;;4.22;1.20;;;;;;;8.06;67.06;99284.80;1753106;79;21605;-72
2021/03/13 07:44:25;;;;;;;6.12;1.17;;;;;;;8.10;66.84;99277.30;1741701;80;21202;-72
2021/03/13 07:46:51;;;;;;;2.92;1.12;;;;;;;8.15;66.51;99271.78;1749877;80;21140;-73
2021/03/13 07:49:17;;;;;;;6.17;1.55;;;;;;;8.14;66.28;99274.60;1752179;80;21213;-72
2021/03/13 07:51:44;;;;;;;3.37;1.55;;;;;;;8.18;66.00;99276.72;1749967;80;21565;-73
2021/03/13 07:54:10;;;;;;;3.67;1.50;;;;;;;8.26;65.68;99267.84;1737446;81;22131;-73
2021/03/13 07:56:41;;;;;;;5.65;1.80;;;;;;;8.33;65.24;99272.28;1733321;80;21620;-73
2021/03/13 07:59:12;;;;;;;2.72;1.22;;;;;;;8.24;64.96;99277.31;1750119;80;21155;-73
2021/03/13 08:01:48;;;;;;;3.90;1.55;;;;;;;8.22;64.64;99262.08;1748032;80;21195;-73
2021/03/13 08:04:41;;;;;;;5.58;1.40;;;;;;;8.25;64.47;99259.55;1747078;80;21179;-73
2021/03/13 08:07:07;;;;;;;4.10;1.30;;;;;;;8.34;64.29;99271.25;1736502;80;21291;-73
2021/03/13 08:09:43;;;;;;;3.17;1.92;;;;;;;8.41;64.12;99258.88;1748354;80;21655;-73
2021/03/13 08:12:10;;;;;;;5.03;1.77;;;;;;;8.48;64.00;99266.44;1748210;80;21164;-73
2021/03/13 08:14:37;;;;;;;4.40;2.08;;;;;;;8.55;63.89;99263.06;1753579;80;21668;-73
2021/03/13 08:17:11;;;;;;;3.85;2.20;;;;;;;8.59;63.78;99252.36;1740641;80;21197;-72
2021/03/13 08:19:40;;;;;;;5.92;2.05;;;;;;;8.60;63.58;99238.91;1736890;80;21279;-73
2021/03/13 08:22:17;;;;;;;4.60;1.50;;;;;;;8.59;63.35;99245.72;1733859;82;21170;-72
2021/03/13 08:24:48;;;;;;;3.20;1.50;;;;;;;8.72;63.25;99242.75;1733822;82;21738;-72
2021/03/13 08:27:18;;;;;;;4.03;2.12;;;;;;;8.82;62.91;99237.13;1735805;81;21152;-72
2021/03/13 08:29:50;;;;;;;3.95;1.80;;;;;;;8.86;62.70;99226.44;1728579;81;21636;-72
2021/03/13 08:32:17;;;;;;;2.87;1.32;;;;;;;8.96;62.56;99234.94;1731662;81;21475;-73
2021/03/13 08:34:44;;;;;;;4.58;1.87;;;;;;;9.10;62.40;99230.07;1733754;81;21171;-73
2021/03/13 08:37:17;;;;;;;8.63;1.30;;;;;;;9.17;62.33;99229.63;1733046;82;21241;-72
2021/03/13 08:39:44;;;;;;;5.08;1.80;;;;;;;9.30;62.27;99223.10;1713902;83;21658;-73
2021/03/13 08:42:10;;;;;;;6.95;1.70;;;;;;;9.37;62.12;99216.51;1715122;83;21153;-72
2021/03/13 08:44:37;;;;;;;5.50;1.55;;;;;;;9.42;61.82;99204.30;1714034;83;21263;-73
2021/03/13 08:47:09;;;;;;;4.78;1.42;;;;;;;9.44;61.39;99208.08;1713995;83;21209;-73
2021/03/13 08:49:47;;;;;;;3.10;1.80;;;;;;;9.57;61.35;99194.08;1730742;82;21187;-72
2021/03/13 08:52:21;;;;;;;3.05;1.62;;;;;;;9.75;61.23;99198.38;1733744;81;21228;-73
2021/03/13 08:54:50;;;;;;;6.05;1.67;;;;;;;9.92;61.09;99198.42;1733021;82;21161;-73
2021/03/13 08:57:31;;;;;;;3.87;1.60;;;;;;;9.92;60.83;99194.44;1704721;82;22046;-73
2021/03/13 08:59:59;;;;;;;7.10;1.35;;;;;;;9.82;60.65;99181.44;1709636;83;21155;-73
2021/03/13 09:02:29;;;;;;;4.10;1.98;;;;;;;9.88;60.53;99186.52;1734412;81;22378;-72
2021/03/13 09:05:09;;;;;;;2.08;1.20;;;;;;;10.11;60.47;99177.73;1732923;81;21149;-73
2021/03/13 09:07:37;;;;;;;;;;;;;;;10.36;60.43;99177.58;1714575;83;21181;-73
2021/03/13 09:10:05;;;;;;;2.40;1.50;;;;;;;10.53;59.96;99165.55;1710282;82;21264;-73
2021/03/13 09:12:33;;;;;;;5.20;2.02;;;;;;;10.21;59.18;99163.56;1709634;83;21638;-73
2021/03/13 09:15:04;;;;;;;6.22;2.27;;;;;;;9.94;58.90;99147.11;1733942;82;21119;-73
2021/03/13 09:17:31;;;;;;;6.60;1.55;;;;;;;9.72;58.49;99148.20;1732650;82;21188;-73
2021/03/13 09:20:08;;;;;;;3.17;0.98;;;;;;;9.67;58.41;99154.63;1731983;81;21654;-72
2021/03/13 09:22:40;;;;;;;7.75;1.30;;;;;;;9.48;58.26;99146.30;1720791;82;21224;-73
2021/03/13 09:25:12;;;;;;;6.55;1.27;;;;;;;9.40;57.86;99147.77;1721457;81;21197;-73
2021/03/13 09:27:38;;;;;;;7.78;3.83;;;;;;;9.37;57.74;99146.83;1721055;83;21213;-73
2021/03/13 09:30:09;;;;;;;11.22;5.95;;;;;;;9.30;57.70;99157.92;1749277;81;21123;-73
2021/03/13 09:32:44;;;;;;;27.67;13.83;;;;;;;9.25;57.74;99143.56;1724724;82;21173;-72
2021/03/13 09:35:10;;;;;;;7.20;4.08;;;;;;;9.34;57.89;99140.56;1723751;82;22639;-73
2021/03/13 09:37:36;;;;;;;6.10;1.75;;;;;;;9.52;57.91;99138.25;1726525;82;21623;-73
2021/03/13 09:40:10;;;;;;;4.83;1.30;;;;;;;9.61;57.63;99136.25;1721434;83;21149;-73
2021/03/13 09:42:36;;;;;;;8.13;1.60;;;;;;;9.66;57.60;99137.00;1718027;83;21149;-73
2021/03/13 09:45:19;;;;;;;7.10;2.58;;;;;;;9.73;57.57;99128.55;1728462;81;21183;-73
2021/03/13 09:47:50;;;;;;;4.03;2.50;;;;;;;9.68;57.51;99120.31;1717101;82;21219;-73
2021/03/13 09:50:26;;;;;;;4.00;1.60;;;;;;;9.62;57.57;99121.10;1729377;82;21211;-73
2021/03/13 09:52:52;;;;;;;5.28;2.77;;;;;;;9.59;57.61;99116.17;1716450;82;21647;-73
2021/03/13 09:55:27;;;;;;;5.50;3.47;;;;;;;9.48;57.63;99118.36;1724431;82;21639;-73
2021/03/13 09:57:59;;;;;;;6.35;4.37;;;;;;;9.38;57.75;99115.22;1719746;82;21191;-73
2021/03/13 10:00:33;;;;;;;14.63;7.72;;;;;;;9.33;57.93;99120.28;1719747;82;22337;-73
2021/03/13 10:03:01;;;;;;;4.03;1.90;;;;;;;9.34;58.08;99113.96;1724154;82;21219;-73
2021/03/13 10:05:31;;;;;;;6.60;3.35;;;;;;;9.29;58.25;99108.92;1720681;82;21610;-73
2021/03/13 10:08:06;;;;;;;5.20;2.30;;;;;;;9.15;58.46;99116.48;1722831;82;21155;-73
2021/03/13 10:10:35;;;;;;;6.08;2.27;;;;;;;9.08;58.75;99115.06;1716755;82;21173;-73
2021/03/13 10:13:03;;;;;;;12.15;6.50;;;;;;;8.95;59.07;99121.61;1717376;82;22104;-73
2021/03/13 10:15:31;;;;;;;9.50;5.15;;;;;;;8.80;59.49;99119.01;1715645;82;21193;-73
2021/03/13 10:18:03;;;;;;;7.72;4.22;;;;;;;8.60;59.96;99130.45;1721211;82;21191;-73
2021/03/13 10:20:49;;;;;;;22.00;11.10;;;;;;;8.42;60.49;99134.35;1716038;81;22342;-72
2021/03/13 10:23:26;;;;;;;22.50;10.95;;;;;;;8.30;60.89;99123.87;1728179;81;21185;-73
2021/03/13 10:26:03;;;;;;;23.52;10.30;;;;;;;8.20;61.37;99130.50;1728045;81;21847;-73
2021/03/13 10:28:38;;;;;;;14.43;6.72;;;;;;;8.02;62.09;99126.37;1723367;82;21266;-73
2021/03/13 10:31:12;;;;;;;15.65;9.00;;;;;;;7.87;62.68;99128.73;1747016;80;21181;-72
2021/03/13 10:33:43;;;;;;;13.18;6.40;;;;;;;7.71;63.23;99116.95;1746549;80;21191;-72
2021/03/13 10:36:10;;;;;;;13.88;7.00;;;;;;;7.69;63.66;99115.00;1747744;80;21207;-72
2021/03/13 10:38:46;;;;;;;10.48;4.62;;;;;;;7.71;64.10;99107.17;1748171;80;21266;-73
2021/03/13 10:41:15;;;;;;;25.08;10.35;;;;;;;7.70;64.46;99087.47;1741022;80;21139;-72
2021/03/13 10:43:45;;;;;;;16.30;9.50;;;;;;;7.63;64.87;99095.84;1742649;80;21197;-72
2021/03/13 10:46:25;;;;;;;11.05;6.55;;;;;;;7.58;65.25;99094.23;1736915;80;21203;-72
2021/03/13 10:49:00;;;;;;;8.13;5.60;;;;;;;7.58;65.62;99085.77;1757048;80;26141;-72
2021/03/13 10:51:45;;;;;;;6.40;4.30;;;;;;;7.70;65.96;99079.51;1742979;80;22190;-72
2021/03/13 10:54:30;;;;;;;13.43;7.65;;;;;;;7.79;66.14;99075.73;1744341;80;21731;-72
2021/03/13 10:57:07;;;;;;;12.13;5.78;;;;;;;7.87;66.35;99066.36;1748885;80;21607;-73
2021/03/13 10:59:33;;;;;;;16.57;9.40;;;;;;;7.93;66.66;99058.47;1722961;80;21651;-72
2021/03/13 11:02:00;;;;;;;25.62;12.85;;;;;;;7.97;66.95;99058.92;1746716;80;21697;-73
2021/03/13 11:04:26;;;;;;;13.00;7.00;;;;;;;8.02;67.16;99057.34;1738434;82;21209;-73
2021/03/13 11:06:54;;;;;;;4.87;2.55;;;;;;;8.13;67.34;99047.27;1733075;81;21167;-74
2021/03/13 11:09:23;;;;;;;5.70;3.55;;;;;;;8.12;67.56;99042.47;1736615;82;21144;-73
2021/03/13 11:11:49;;;;;;;5.28;3.00;;;;;;;8.09;67.71;99036.70;1745412;80;21155;-73
2021/03/13 11:14:17;;;;;;;6.95;3.77;;;;;;;8.14;67.83;99040.44;1755509;80;21165;-73
2021/03/13 11:16:44;;;;;;;6.28;3.60;;;;;;;8.18;67.94;99028.43;1749998;80;21198;-73
2021/03/13 11:19:14;;;;;;;7.33;3.92;;;;;;;8.20;68.00;99024.27;1755402;80;21660;-73
2021/03/13 11:21:40;;;;;;;5.60;3.35;;;;;;;8.26;68.06;99018.20;1773550;80;21154;-73
2021/03/13 11:24:07;;;;;;;6.37;3.05;;;;;;;8.29;68.08;99021.33;1768724;80;21137;-73
2021/03/13 11:26:33;;;;;;;7.80;4.28;;;;;;;8.30;68.08;99017.64;1766117;80;21626;-73
2021/03/13 11:29:00;;;;;;;6.83;4.72;;;;;;;8.34;68.10;99016.76;1764127;80;22142;-73
2021/03/13 11:31:26;;;;;;;4.37;2.90;;;;;;;8.37;68.10;99011.89;1779622;80;21155;-72
2021/03/13 11:33:53;;;;;;;5.22;3.42;;;;;;;8.42;68.14;99004.19;1769234;80;21642;-72
2021/03/13 11:36:19;;;;;;;6.35;3.52;;;;;;;8.43;68.15;99001.86;1786097;80;21187;-72
2021/03/13 11:38:45;;;;;;;7.62;5.58;;;;;;;8.45;68.17;99001.14;1785719;80;21100;-72
2021/03/13 11:41:11;;;;;;;6.33;4.20;;;;;;;8.47;68.20;99000.97;1786255;80;22138;-72
2021/03/13 11:43:41;;;;;;;14.28;8.68;;;;;;;8.50;68.25;98996.09;1786316;80;21155;-72
2021/03/13 11:46:08;;;;;;;13.05;9.35;;;;;;;8.58;68.31;98987.67;1786386;80;21175;-72
2021/03/13 11:48:34;;;;;;;13.35;8.25;;;;;;;8.63;68.40;98983.41;1786189;80;21175;-72
2021/03/13 11:51:00;;;;;;;12.90;6.53;;;;;;;8.75;68.46;98970.44;1786183;80;21175;-72
2021/03/13 11:53:27;;;;;;;8.78;5.60;;;;;;;8.87;68.49;98966.20;1786182;80;21204;-72